Weather Data

Pearl Creek Farm: 8878 N Farm Road 75, Walnut Grove MO 65770

<== Previous Day (Sunday 05 Jan 2020) | Next Day (Tuesday 07 Jan 2020) ==>

Summary Precipitation Data For Monday 06 January 2020

ElementValueUnits
Precipitation0"
Notes(none)
SourcePearl Creek Farm

Summary Temperature Data For Monday 06 January 2020

ElementValueUnits
High Temperature50 oF
Low Temperature24 oF
Average Temperature38 oF
High Humidity84 %
Low Humidity36 %
Average Humidity58 %
SourceSpringfield-Branson National Airport (SGF)

Detail Temperature Data For Monday 06 January 2020

Date / TimeTemp (F)RH (%)Dew Pt (F)Report Date / TimeSource
2020-01-06 00:52:00 34 64 23.0 2021-01-15 18:54:53.841352 Springfield-Branson National Airport (SGF)
2020-01-06 01:52:00 31 67 21.0 2021-01-15 18:54:53.841352 Springfield-Branson National Airport (SGF)
2020-01-06 02:52:00 31 69 22.0 2021-01-15 18:54:53.841352 Springfield-Branson National Airport (SGF)
2020-01-06 03:52:00 26 78 20.0 2021-01-15 18:54:53.841352 Springfield-Branson National Airport (SGF)
2020-01-06 04:52:00 32 69 23.0 2021-01-15 18:54:53.841352 Springfield-Branson National Airport (SGF)
2020-01-06 05:52:00 29 72 21.0 2021-01-15 18:54:53.841352 Springfield-Branson National Airport (SGF)
2020-01-06 06:52:00 30 69 21.0 2021-01-15 18:54:53.841352 Springfield-Branson National Airport (SGF)
2020-01-06 07:52:00 24 84 20.0 2021-01-15 18:54:53.841352 Springfield-Branson National Airport (SGF)
2020-01-06 08:52:00 34 73 26.0 2021-01-15 18:54:53.841352 Springfield-Branson National Airport (SGF)
2020-01-06 09:52:00 39 62 27.0 2021-01-15 18:54:53.841352 Springfield-Branson National Airport (SGF)
2020-01-06 10:52:00 42 51 25.0 2021-01-15 18:54:53.841352 Springfield-Branson National Airport (SGF)
2020-01-06 11:52:00 46 40 23.0 2021-01-15 18:54:53.841352 Springfield-Branson National Airport (SGF)
2020-01-06 12:52:00 48 37 23.0 2021-01-15 18:54:53.841352 Springfield-Branson National Airport (SGF)
2020-01-06 13:52:00 49 38 24.0 2021-01-15 18:54:53.841352 Springfield-Branson National Airport (SGF)
2020-01-06 14:52:00 50 36 24.0 2021-01-15 18:54:53.841352 Springfield-Branson National Airport (SGF)
2020-01-06 15:52:00 49 38 24.0 2021-01-15 18:54:53.841352 Springfield-Branson National Airport (SGF)
2020-01-06 16:52:00 48 41 25.0 2021-01-15 18:54:53.841352 Springfield-Branson National Airport (SGF)
2020-01-06 17:52:00 47 44 26.0 2021-01-15 18:54:53.841352 Springfield-Branson National Airport (SGF)
2020-01-06 18:52:00 44 47 25.0 2021-01-15 18:54:53.841352 Springfield-Branson National Airport (SGF)
2020-01-06 19:52:00 42 51 25.0 2021-01-15 18:54:53.841352 Springfield-Branson National Airport (SGF)
2020-01-06 20:52:00 33 64 22.0 2021-01-15 18:54:53.841352 Springfield-Branson National Airport (SGF)
2020-01-06 21:52:00 32 69 23.0 2021-01-15 18:54:53.841352 Springfield-Branson National Airport (SGF)
2020-01-06 22:52:00 30 75 23.0 2021-01-15 18:54:53.841352 Springfield-Branson National Airport (SGF)
2020-01-06 23:52:00 38 60 25.0 2021-01-15 18:54:53.841352 Springfield-Branson National Airport (SGF)

A total of 24 rows are displayed.